sensor_id;sensor_type;location;lat;lon;timestamp;temperature;humidity
56103;DHT22;41970;48.774;9.280;2022-07-26T00:02:00;25.00;67.60
56103;DHT22;41970;48.774;9.280;2022-07-26T00:04:26;24.90;67.80
56103;DHT22;41970;48.774;9.280;2022-07-26T00:06:53;24.70;68.20
56103;DHT22;41970;48.774;9.280;2022-07-26T00:09:19;24.70;68.90
56103;DHT22;41970;48.774;9.280;2022-07-26T00:11:45;24.50;69.20
56103;DHT22;41970;48.774;9.280;2022-07-26T00:14:11;24.40;69.70
56103;DHT22;41970;48.774;9.280;2022-07-26T00:16:37;24.50;70.00
56103;DHT22;41970;48.774;9.280;2022-07-26T00:19:05;24.50;70.20
56103;DHT22;41970;48.774;9.280;2022-07-26T00:21:34;24.50;70.30
56103;DHT22;41970;48.774;9.280;2022-07-26T00:24:05;24.60;69.80
56103;DHT22;41970;48.774;9.280;2022-07-26T00:26:32;24.70;69.90
56103;DHT22;41970;48.774;9.280;2022-07-26T00:28:58;24.60;70.40
56103;DHT22;41970;48.774;9.280;2022-07-26T00:31:24;24.50;70.80
56103;DHT22;41970;48.774;9.280;2022-07-26T00:33:50;24.50;71.20
56103;DHT22;41970;48.774;9.280;2022-07-26T00:36:16;24.40;71.60
56103;DHT22;41970;48.774;9.280;2022-07-26T00:38:42;24.10;72.60
56103;DHT22;41970;48.774;9.280;2022-07-26T00:41:08;24.10;73.00
56103;DHT22;41970;48.774;9.280;2022-07-26T00:43:58;24.00;73.10
56103;DHT22;41970;48.774;9.280;2022-07-26T00:46:25;24.00;73.10
56103;DHT22;41970;48.774;9.280;2022-07-26T00:48:51;24.10;73.20
56103;DHT22;41970;48.774;9.280;2022-07-26T00:51:18;24.10;72.80
56103;DHT22;41970;48.774;9.280;2022-07-26T00:53:45;24.10;72.80
56103;DHT22;41970;48.774;9.280;2022-07-26T00:56:13;24.20;73.00
56103;DHT22;41970;48.774;9.280;2022-07-26T00:58:40;24.20;73.00
56103;DHT22;41970;48.774;9.280;2022-07-26T01:01:07;24.30;73.00
56103;DHT22;41970;48.774;9.280;2022-07-26T01:03:33;24.40;73.00
56103;DHT22;41970;48.774;9.280;2022-07-26T01:05:59;24.40;72.80
56103;DHT22;41970;48.774;9.280;2022-07-26T01:08:25;24.50;72.70
56103;DHT22;41970;48.774;9.280;2022-07-26T01:10:51;24.50;72.60
56103;DHT22;41970;48.774;9.280;2022-07-26T01:13:21;24.50;72.70
56103;DHT22;41970;48.774;9.280;2022-07-26T01:15:48;24.60;71.90
56103;DHT22;41970;48.774;9.280;2022-07-26T01:18:14;24.70;72.00
56103;DHT22;41970;48.774;9.280;2022-07-26T01:20:41;24.70;72.00
56103;DHT22;41970;48.774;9.280;2022-07-26T01:23:08;24.70;74.30
56103;DHT22;41970;48.774;9.280;2022-07-26T01:25:36;24.60;76.70
56103;DHT22;41970;48.774;9.280;2022-07-26T01:28:03;24.30;79.10
56103;DHT22;41970;48.774;9.280;2022-07-26T01:30:29;24.20;81.10
56103;DHT22;41970;48.774;9.280;2022-07-26T01:32:55;24.00;82.70
56103;DHT22;41970;48.774;9.280;2022-07-26T01:35:21;23.70;84.50
56103;DHT22;41970;48.774;9.280;2022-07-26T01:37:47;23.50;87.00
56103;DHT22;41970;48.774;9.280;2022-07-26T01:40:13;23.10;89.10
56103;DHT22;41970;48.774;9.280;2022-07-26T01:42:40;22.90;90.70
56103;DHT22;41970;48.774;9.280;2022-07-26T01:45:10;22.90;91.20
56103;DHT22;41970;48.774;9.280;2022-07-26T01:47:37;22.80;91.70
56103;DHT22;41970;48.774;9.280;2022-07-26T01:50:05;22.80;91.70
56103;DHT22;41970;48.774;9.280;2022-07-26T01:52:31;22.70;91.70
56103;DHT22;41970;48.774;9.280;2022-07-26T01:54:57;22.70;91.70
56103;DHT22;41970;48.774;9.280;2022-07-26T01:57:23;22.80;91.60
56103;DHT22;41970;48.774;9.280;2022-07-26T01:59:49;22.80;91.50
56103;DHT22;41970;48.774;9.280;2022-07-26T02:02:15;22.90;91.50
56103;DHT22;41970;48.774;9.280;2022-07-26T02:04:41;23.00;91.30
56103;DHT22;41970;48.774;9.280;2022-07-26T02:07:30;23.00;91.50
56103;DHT22;41970;48.774;9.280;2022-07-26T02:09:57;22.80;92.00
56103;DHT22;41970;48.774;9.280;2022-07-26T02:12:23;22.90;92.00
56103;DHT22;41970;48.774;9.280;2022-07-26T02:14:50;22.90;92.10
56103;DHT22;41970;48.774;9.280;2022-07-26T02:17:16;23.00;91.90
56103;DHT22;41970;48.774;9.280;2022-07-26T02:19:42;23.00;91.70
56103;DHT22;41970;48.774;9.280;2022-07-26T02:22:08;23.10;91.70
56103;DHT22;41970;48.774;9.280;2022-07-26T02:24:34;23.10;91.60
56103;DHT22;41970;48.774;9.280;2022-07-26T02:27:00;23.10;91.70
56103;DHT22;41970;48.774;9.280;2022-07-26T02:29:27;23.00;91.80
56103;DHT22;41970;48.774;9.280;2022-07-26T02:31:53;23.00;92.00
56103;DHT22;41970;48.774;9.280;2022-07-26T02:34:20;22.90;92.10
56103;DHT22;41970;48.774;9.280;2022-07-26T02:36:46;22.70;92.70
56103;DHT22;41970;48.774;9.280;2022-07-26T02:39:12;22.40;93.10
56103;DHT22;41970;48.774;9.280;2022-07-26T02:41:39;22.30;93.60
56103;DHT22;41970;48.774;9.280;2022-07-26T02:44:05;22.20;93.80
56103;DHT22;41970;48.774;9.280;2022-07-26T02:46:31;22.20;94.20
56103;DHT22;41970;48.774;9.280;2022-07-26T02:48:57;22.20;94.10
56103;DHT22;41970;48.774;9.280;2022-07-26T02:51:25;22.40;93.80
56103;DHT22;41970;48.774;9.280;2022-07-26T02:53:52;22.60;93.50
56103;DHT22;41970;48.774;9.280;2022-07-26T02:56:19;22.70;93.30
56103;DHT22;41970;48.774;9.280;2022-07-26T02:58:45;22.80;93.10
56103;DHT22;41970;48.774;9.280;2022-07-26T03:01:11;22.90;93.00
56103;DHT22;41970;48.774;9.280;2022-07-26T03:03:37;23.00;92.90
56103;DHT22;41970;48.774;9.280;2022-07-26T03:06:03;23.00;92.80
56103;DHT22;41970;48.774;9.280;2022-07-26T03:08:29;23.20;92.80
56103;DHT22;41970;48.774;9.280;2022-07-26T03:10:54;23.20;92.70
56103;DHT22;41970;48.774;9.280;2022-07-26T03:13:20;23.00;93.20
56103;DHT22;41970;48.774;9.280;2022-07-26T03:15:46;23.00;93.20
56103;DHT22;41970;48.774;9.280;2022-07-26T03:18:12;23.00;93.20
56103;DHT22;41970;48.774;9.280;2022-07-26T03:20:38;23.00;93.50
56103;DHT22;41970;48.774;9.280;2022-07-26T03:23:04;22.80;93.80
56103;DHT22;41970;48.774;9.280;2022-07-26T03:25:30;22.60;94.10
56103;DHT22;41970;48.774;9.280;2022-07-26T03:27:56;22.60;94.40
56103;DHT22;41970;48.774;9.280;2022-07-26T03:30:22;22.50;94.80
56103;DHT22;41970;48.774;9.280;2022-07-26T03:32:48;22.50;94.50
56103;DHT22;41970;48.774;9.280;2022-07-26T03:35:14;22.50;94.80
56103;DHT22;41970;48.774;9.280;2022-07-26T03:37:40;22.50;94.50
56103;DHT22;41970;48.774;9.280;2022-07-26T03:40:06;22.50;94.60
56103;DHT22;41970;48.774;9.280;2022-07-26T03:42:34;22.30;94.80
56103;DHT22;41970;48.774;9.280;2022-07-26T03:45:00;22.30;95.00
56103;DHT22;41970;48.774;9.280;2022-07-26T03:47:26;22.20;95.20
56103;DHT22;41970;48.774;9.280;2022-07-26T03:49:52;22.20;95.40
56103;DHT22;41970;48.774;9.280;2022-07-26T03:52:18;22.20;95.30
56103;DHT22;41970;48.774;9.280;2022-07-26T03:54:44;22.30;95.20
56103;DHT22;41970;48.774;9.280;2022-07-26T03:57:10;22.30;95.20
56103;DHT22;41970;48.774;9.280;2022-07-26T03:59:35;22.30;95.20
56103;DHT22;41970;48.774;9.280;2022-07-26T04:02:01;22.20;95.30
56103;DHT22;41970;48.774;9.280;2022-07-26T04:04:27;22.20;95.10
56103;DHT22;41970;48.774;9.280;2022-07-26T04:06:53;22.20;95.00
56103;DHT22;41970;48.774;9.280;2022-07-26T04:09:21;22.30;94.90
56103;DHT22;41970;48.774;9.280;2022-07-26T04:11:47;22.40;94.70
56103;DHT22;41970;48.774;9.280;2022-07-26T04:14:13;22.50;94.80
56103;DHT22;41970;48.774;9.280;2022-07-26T04:16:39;22.30;94.60
56103;DHT22;41970;48.774;9.280;2022-07-26T04:19:05;22.20;94.90
56103;DHT22;41970;48.774;9.280;2022-07-26T04:21:31;22.10;95.10
56103;DHT22;41970;48.774;9.280;2022-07-26T04:23:57;21.90;95.20
56103;DHT22;41970;48.774;9.280;2022-07-26T04:26:23;21.80;95.30
56103;DHT22;41970;48.774;9.280;2022-07-26T04:28:49;21.90;95.30
56103;DHT22;41970;48.774;9.280;2022-07-26T04:31:15;22.00;95.10
56103;DHT22;41970;48.774;9.280;2022-07-26T04:33:41;22.00;94.90
56103;DHT22;41970;48.774;9.280;2022-07-26T04:36:07;22.00;95.10
56103;DHT22;41970;48.774;9.280;2022-07-26T04:38:33;21.90;95.20
56103;DHT22;41970;48.774;9.280;2022-07-26T04:40:59;21.90;95.40
56103;DHT22;41970;48.774;9.280;2022-07-26T04:43:25;21.90;95.50
56103;DHT22;41970;48.774;9.280;2022-07-26T04:45:51;22.00;95.40
56103;DHT22;41970;48.774;9.280;2022-07-26T04:48:17;22.10;95.10
56103;DHT22;41970;48.774;9.280;2022-07-26T04:50:43;22.20;94.60
56103;DHT22;41970;48.774;9.280;2022-07-26T04:53:09;22.40;94.20
56103;DHT22;41970;48.774;9.280;2022-07-26T04:55:39;22.40;93.80
56103;DHT22;41970;48.774;9.280;2022-07-26T04:58:05;22.50;93.50
56103;DHT22;41970;48.774;9.280;2022-07-26T05:00:32;22.60;93.80
56103;DHT22;41970;48.774;9.280;2022-07-26T05:02:59;22.60;93.00
56103;DHT22;41970;48.774;9.280;2022-07-26T05:05:28;22.70;92.70
56103;DHT22;41970;48.774;9.280;2022-07-26T05:07:56;22.80;92.70
56103;DHT22;41970;48.774;9.280;2022-07-26T05:10:28;22.80;92.50
56103;DHT22;41970;48.774;9.280;2022-07-26T05:12:54;22.90;92.50
56103;DHT22;41970;48.774;9.280;2022-07-26T05:15:20;22.90;92.30
56103;DHT22;41970;48.774;9.280;2022-07-26T05:17:46;23.00;92.30
56103;DHT22;41970;48.774;9.280;2022-07-26T05:20:14;23.10;92.20
56103;DHT22;41970;48.774;9.280;2022-07-26T05:22:41;23.10;92.10
56103;DHT22;41970;48.774;9.280;2022-07-26T05:25:07;23.20;92.00
56103;DHT22;41970;48.774;9.280;2022-07-26T05:27:34;23.30;92.00
56103;DHT22;41970;48.774;9.280;2022-07-26T05:30:00;23.30;91.70
56103;DHT22;41970;48.774;9.280;2022-07-26T05:32:26;23.30;91.70
56103;DHT22;41970;48.774;9.280;2022-07-26T05:34:55;23.30;91.90
56103;DHT22;41970;48.774;9.280;2022-07-26T05:37:20;23.30;91.70
56103;DHT22;41970;48.774;9.280;2022-07-26T05:39:46;23.30;91.70
56103;DHT22;41970;48.774;9.280;2022-07-26T05:42:12;23.30;91.70
56103;DHT22;41970;48.774;9.280;2022-07-26T05:44:38;23.30;91.80
56103;DHT22;41970;48.774;9.280;2022-07-26T05:47:04;23.40;91.70
56103;DHT22;41970;48.774;9.280;2022-07-26T05:49:30;23.40;91.80
56103;DHT22;41970;48.774;9.280;2022-07-26T05:51:55;23.40;91.80
56103;DHT22;41970;48.774;9.280;2022-07-26T05:54:21;23.30;91.60
56103;DHT22;41970;48.774;9.280;2022-07-26T05:56:47;23.30;91.70
56103;DHT22;41970;48.774;9.280;2022-07-26T05:59:13;23.30;91.70
56103;DHT22;41970;48.774;9.280;2022-07-26T06:01:39;23.30;91.70
56103;DHT22;41970;48.774;9.280;2022-07-26T06:04:05;23.30;91.80
56103;DHT22;41970;48.774;9.280;2022-07-26T06:06:31;23.40;91.30
56103;DHT22;41970;48.774;9.280;2022-07-26T06:08:57;23.30;91.30
56103;DHT22;41970;48.774;9.280;2022-07-26T06:11:23;23.20;91.60
56103;DHT22;41970;48.774;9.280;2022-07-26T06:13:48;23.10;91.40
56103;DHT22;41970;48.774;9.280;2022-07-26T06:16:14;23.10;91.50
56103;DHT22;41970;48.774;9.280;2022-07-26T06:18:40;23.00;91.50
56103;DHT22;41970;48.774;9.280;2022-07-26T06:21:06;23.00;91.50
56103;DHT22;41970;48.774;9.280;2022-07-26T06:23:32;23.10;91.20
56103;DHT22;41970;48.774;9.280;2022-07-26T06:25:58;23.00;91.20
56103;DHT22;41970;48.774;9.280;2022-07-26T06:28:24;23.00;91.60
56103;DHT22;41970;48.774;9.280;2022-07-26T06:30:50;23.00;91.00
56103;DHT22;41970;48.774;9.280;2022-07-26T06:33:16;23.00;90.90
56103;DHT22;41970;48.774;9.280;2022-07-26T06:35:42;23.00;90.50
56103;DHT22;41970;48.774;9.280;2022-07-26T06:38:08;23.00;90.10
56103;DHT22;41970;48.774;9.280;2022-07-26T06:40:34;23.00;89.90
56103;DHT22;41970;48.774;9.280;2022-07-26T06:43:01;23.10;89.80
56103;DHT22;41970;48.774;9.280;2022-07-26T06:45:28;23.10;87.70
56103;DHT22;41970;48.774;9.280;2022-07-26T06:47:54;23.10;85.70
56103;DHT22;41970;48.774;9.280;2022-07-26T06:50:21;23.10;84.40
56103;DHT22;41970;48.774;9.280;2022-07-26T06:52:47;23.10;84.90
56103;DHT22;41970;48.774;9.280;2022-07-26T06:55:13;23.30;83.70
56103;DHT22;41970;48.774;9.280;2022-07-26T06:57:39;23.40;82.50
56103;DHT22;41970;48.774;9.280;2022-07-26T07:00:07;23.40;82.50
56103;DHT22;41970;48.774;9.280;2022-07-26T07:02:34;23.70;80.90
56103;DHT22;41970;48.774;9.280;2022-07-26T07:05:00;24.00;79.70
56103;DHT22;41970;48.774;9.280;2022-07-26T07:07:26;24.10;79.50
56103;DHT22;41970;48.774;9.280;2022-07-26T07:09:52;24.30;79.50
56103;DHT22;41970;48.774;9.280;2022-07-26T07:12:18;24.30;78.30
56103;DHT22;41970;48.774;9.280;2022-07-26T07:14:44;24.40;77.10
56103;DHT22;41970;48.774;9.280;2022-07-26T07:17:09;24.50;77.10
56103;DHT22;41970;48.774;9.280;2022-07-26T07:19:36;24.60;74.90
56103;DHT22;41970;48.774;9.280;2022-07-26T07:22:06;24.60;74.60
56103;DHT22;41970;48.774;9.280;2022-07-26T07:24:36;24.70;73.80
56103;DHT22;41970;48.774;9.280;2022-07-26T07:27:02;24.90;72.50
56103;DHT22;41970;48.774;9.280;2022-07-26T07:29:28;25.20;71.70
56103;DHT22;41970;48.774;9.280;2022-07-26T07:31:54;25.60;70.60
56103;DHT22;41970;48.774;9.280;2022-07-26T07:34:20;25.80;67.90
56103;DHT22;41970;48.774;9.280;2022-07-26T07:36:48;26.00;67.60
56103;DHT22;41970;48.774;9.280;2022-07-26T07:39:14;26.30;67.40
56103;DHT22;41970;48.774;9.280;2022-07-26T07:41:42;26.50;66.70
56103;DHT22;41970;48.774;9.280;2022-07-26T07:44:07;26.70;66.00
56103;DHT22;41970;48.774;9.280;2022-07-26T07:46:33;26.80;64.30
56103;DHT22;41970;48.774;9.280;2022-07-26T07:48:59;27.00;64.00
56103;DHT22;41970;48.774;9.280;2022-07-26T07:51:26;27.40;65.00
56103;DHT22;41970;48.774;9.280;2022-07-26T07:53:52;27.60;62.20
56103;DHT22;41970;48.774;9.280;2022-07-26T07:56:18;27.40;61.90
56103;DHT22;41970;48.774;9.280;2022-07-26T07:58:44;27.40;60.70
56103;DHT22;41970;48.774;9.280;2022-07-26T08:01:10;27.40;59.90
56103;DHT22;41970;48.774;9.280;2022-07-26T08:03:36;27.20;60.20
56103;DHT22;41970;48.774;9.280;2022-07-26T08:06:04;26.90;61.90
56103;DHT22;41970;48.774;9.280;2022-07-26T08:08:31;26.70;62.00
56103;DHT22;41970;48.774;9.280;2022-07-26T08:10:57;26.80;62.30
56103;DHT22;41970;48.774;9.280;2022-07-26T08:13:23;26.70;63.50
56103;DHT22;41970;48.774;9.280;2022-07-26T08:15:51;26.80;61.00
56103;DHT22;41970;48.774;9.280;2022-07-26T08:18:17;26.90;62.00
56103;DHT22;41970;48.774;9.280;2022-07-26T08:20:43;27.20;61.80
56103;DHT22;41970;48.774;9.280;2022-07-26T08:23:09;27.30;59.00
56103;DHT22;41970;48.774;9.280;2022-07-26T08:25:35;27.30;58.70
56103;DHT22;41970;48.774;9.280;2022-07-26T08:28:00;27.20;59.10
56103;DHT22;41970;48.774;9.280;2022-07-26T08:30:26;27.30;58.50
56103;DHT22;41970;48.774;9.280;2022-07-26T08:32:52;27.70;58.70
56103;DHT22;41970;48.774;9.280;2022-07-26T08:35:18;27.70;57.90
56103;DHT22;41970;48.774;9.280;2022-07-26T08:37:44;27.80;57.70
56103;DHT22;41970;48.774;9.280;2022-07-26T08:40:09;27.60;58.50
56103;DHT22;41970;48.774;9.280;2022-07-26T08:42:35;27.50;57.20
56103;DHT22;41970;48.774;9.280;2022-07-26T08:45:01;27.40;57.40
56103;DHT22;41970;48.774;9.280;2022-07-26T08:47:27;27.40;58.20
56103;DHT22;41970;48.774;9.280;2022-07-26T08:49:53;27.20;58.50
56103;DHT22;41970;48.774;9.280;2022-07-26T08:52:19;27.10;58.30
56103;DHT22;41970;48.774;9.280;2022-07-26T08:54:47;27.10;59.30
56103;DHT22;41970;48.774;9.280;2022-07-26T08:57:14;27.30;57.60
56103;DHT22;41970;48.774;9.280;2022-07-26T08:59:43;27.80;56.90
56103;DHT22;41970;48.774;9.280;2022-07-26T09:02:11;28.20;57.50
56103;DHT22;41970;48.774;9.280;2022-07-26T09:04:40;28.60;56.10
56103;DHT22;41970;48.774;9.280;2022-07-26T09:07:15;28.50;55.30
56103;DHT22;41970;48.774;9.280;2022-07-26T09:12:20;28.00;53.90
56103;DHT22;41970;48.774;9.280;2022-07-26T09:14:46;27.80;54.70
56103;DHT22;41970;48.774;9.280;2022-07-26T09:17:14;27.50;55.00
56103;DHT22;41970;48.774;9.280;2022-07-26T09:19:40;27.50;56.40
56103;DHT22;41970;48.774;9.280;2022-07-26T09:22:09;27.50;54.50
56103;DHT22;41970;48.774;9.280;2022-07-26T09:27:05;28.10;55.00
56103;DHT22;41970;48.774;9.280;2022-07-26T09:29:45;28.20;54.50
56103;DHT22;41970;48.774;9.280;2022-07-26T09:32:17;28.10;54.80
56103;DHT22;41970;48.774;9.280;2022-07-26T09:34:49;28.10;54.70
56103;DHT22;41970;48.774;9.280;2022-07-26T09:37:15;28.00;54.40
56103;DHT22;41970;48.774;9.280;2022-07-26T09:39:59;27.90;54.70
56103;DHT22;41970;48.774;9.280;2022-07-26T09:42:27;28.10;55.40
56103;DHT22;41970;48.774;9.280;2022-07-26T09:44:55;28.10;53.50
56103;DHT22;41970;48.774;9.280;2022-07-26T09:47:21;28.10;54.00
56103;DHT22;41970;48.774;9.280;2022-07-26T09:49:47;28.00;54.20
56103;DHT22;41970;48.774;9.280;2022-07-26T09:52:18;27.80;55.40
56103;DHT22;41970;48.774;9.280;2022-07-26T09:54:46;27.70;56.60
56103;DHT22;41970;48.774;9.280;2022-07-26T09:57:18;27.60;55.90
56103;DHT22;41970;48.774;9.280;2022-07-26T09:59:45;27.60;55.80
56103;DHT22;41970;48.774;9.280;2022-07-26T10:02:12;27.70;55.40
56103;DHT22;41970;48.774;9.280;2022-07-26T10:04:40;27.80;55.90
56103;DHT22;41970;48.774;9.280;2022-07-26T10:07:06;27.80;55.00
56103;DHT22;41970;48.774;9.280;2022-07-26T10:09:47;27.80;54.70
56103;DHT22;41970;48.774;9.280;2022-07-26T10:12:15;27.90;54.80
56103;DHT22;41970;48.774;9.280;2022-07-26T10:14:46;27.70;55.10
56103;DHT22;41970;48.774;9.280;2022-07-26T10:20:01;27.40;55.40
56103;DHT22;41970;48.774;9.280;2022-07-26T10:22:29;27.30;56.20
56103;DHT22;41970;48.774;9.280;2022-07-26T10:25:25;27.30;55.80
56103;DHT22;41970;48.774;9.280;2022-07-26T10:27:44;27.20;57.00
56103;DHT22;41970;48.774;9.280;2022-07-26T10:33:06;27.20;56.60
56103;DHT22;41970;48.774;9.280;2022-07-26T10:38:20;27.20;56.30
56103;DHT22;41970;48.774;9.280;2022-07-26T10:40:59;27.10;57.70
56103;DHT22;41970;48.774;9.280;2022-07-26T10:43:27;27.30;56.90
56103;DHT22;41970;48.774;9.280;2022-07-26T10:51:31;27.30;57.80
56103;DHT22;41970;48.774;9.280;2022-07-26T10:54:08;27.10;58.10
56103;DHT22;41970;48.774;9.280;2022-07-26T10:56:35;27.10;56.80
56103;DHT22;41970;48.774;9.280;2022-07-26T10:59:02;27.00;58.30
56103;DHT22;41970;48.774;9.280;2022-07-26T11:01:36;27.10;56.40
56103;DHT22;41970;48.774;9.280;2022-07-26T11:04:03;27.10;56.50
56103;DHT22;41970;48.774;9.280;2022-07-26T11:06:30;27.10;57.00
56103;DHT22;41970;48.774;9.280;2022-07-26T11:08:57;27.30;56.10
56103;DHT22;41970;48.774;9.280;2022-07-26T11:11:28;27.50;56.10
56103;DHT22;41970;48.774;9.280;2022-07-26T11:14:06;27.60;54.40
56103;DHT22;41970;48.774;9.280;2022-07-26T11:16:40;27.60;54.50
56103;DHT22;41970;48.774;9.280;2022-07-26T11:19:21;27.50;54.80
56103;DHT22;41970;48.774;9.280;2022-07-26T11:21:59;27.40;55.20
56103;DHT22;41970;48.774;9.280;2022-07-26T11:24:26;27.30;54.70
56103;DHT22;41970;48.774;9.280;2022-07-26T11:26:53;27.30;56.00
56103;DHT22;41970;48.774;9.280;2022-07-26T11:29:26;27.40;55.70
56103;DHT22;41970;48.774;9.280;2022-07-26T11:31:52;27.40;55.50
56103;DHT22;41970;48.774;9.280;2022-07-26T11:34:24;27.40;54.40
56103;DHT22;41970;48.774;9.280;2022-07-26T11:36:54;27.30;54.80
56103;DHT22;41970;48.774;9.280;2022-07-26T11:39:25;27.20;53.80
56103;DHT22;41970;48.774;9.280;2022-07-26T11:42:05;27.10;54.10
56103;DHT22;41970;48.774;9.280;2022-07-26T11:44:32;27.10;54.70
56103;DHT22;41970;48.774;9.280;2022-07-26T11:46:58;27.10;54.10
56103;DHT22;41970;48.774;9.280;2022-07-26T11:49:29;27.20;54.40
56103;DHT22;41970;48.774;9.280;2022-07-26T11:52:01;27.20;54.00
56103;DHT22;41970;48.774;9.280;2022-07-26T11:54:45;27.20;53.60
56103;DHT22;41970;48.774;9.280;2022-07-26T11:57:12;27.20;53.20
56103;DHT22;41970;48.774;9.280;2022-07-26T11:59:38;27.20;54.00
56103;DHT22;41970;48.774;9.280;2022-07-26T12:02:07;27.30;53.80
56103;DHT22;41970;48.774;9.280;2022-07-26T12:04:39;27.30;54.30
56103;DHT22;41970;48.774;9.280;2022-07-26T12:07:13;27.30;52.20
56103;DHT22;41970;48.774;9.280;2022-07-26T12:09:50;27.30;53.00
56103;DHT22;41970;48.774;9.280;2022-07-26T12:12:24;27.30;52.50
56103;DHT22;41970;48.774;9.280;2022-07-26T12:15:06;27.30;53.80
56103;DHT22;41970;48.774;9.280;2022-07-26T12:17:33;27.40;53.10
56103;DHT22;41970;48.774;9.280;2022-07-26T12:20:14;27.30;54.00
56103;DHT22;41970;48.774;9.280;2022-07-26T12:22:51;27.30;52.70
56103;DHT22;41970;48.774;9.280;2022-07-26T12:25:24;27.30;52.70
56103;DHT22;41970;48.774;9.280;2022-07-26T12:27:50;27.40;52.00
56103;DHT22;41970;48.774;9.280;2022-07-26T12:30:17;27.60;51.80
56103;DHT22;41970;48.774;9.280;2022-07-26T12:32:45;27.70;51.10
56103;DHT22;41970;48.774;9.280;2022-07-26T12:35:19;27.80;51.90
56103;DHT22;41970;48.774;9.280;2022-07-26T12:37:52;27.80;51.10
56103;DHT22;41970;48.774;9.280;2022-07-26T12:40:22;28.00;50.60
56103;DHT22;41970;48.774;9.280;2022-07-26T12:45:17;27.80;49.80
56103;DHT22;41970;48.774;9.280;2022-07-26T12:47:45;27.90;49.90
56103;DHT22;41970;48.774;9.280;2022-07-26T12:50:13;27.80;49.30
56103;DHT22;41970;48.774;9.280;2022-07-26T12:52:40;27.80;48.90
56103;DHT22;41970;48.774;9.280;2022-07-26T12:55:08;27.90;50.10
56103;DHT22;41970;48.774;9.280;2022-07-26T12:57:36;27.90;49.90
56103;DHT22;41970;48.774;9.280;2022-07-26T13:00:03;28.00;48.10
56103;DHT22;41970;48.774;9.280;2022-07-26T13:02:30;28.00;48.50
56103;DHT22;41970;48.774;9.280;2022-07-26T13:04:56;27.90;49.00
56103;DHT22;41970;48.774;9.280;2022-07-26T13:07:22;28.00;47.80
56103;DHT22;41970;48.774;9.280;2022-07-26T13:09:48;28.00;47.20
56103;DHT22;41970;48.774;9.280;2022-07-26T13:12:15;28.10;47.20
56103;DHT22;41970;48.774;9.280;2022-07-26T13:14:41;28.10;46.70
56103;DHT22;41970;48.774;9.280;2022-07-26T13:17:08;28.10;47.10
56103;DHT22;41970;48.774;9.280;2022-07-26T13:19:35;28.20;48.50
56103;DHT22;41970;48.774;9.280;2022-07-26T13:22:02;28.20;48.90
56103;DHT22;41970;48.774;9.280;2022-07-26T13:24:30;28.20;48.60
56103;DHT22;41970;48.774;9.280;2022-07-26T13:26:56;28.30;47.40
56103;DHT22;41970;48.774;9.280;2022-07-26T13:29:23;28.40;46.80
56103;DHT22;41970;48.774;9.280;2022-07-26T13:31:49;28.50;47.10
56103;DHT22;41970;48.774;9.280;2022-07-26T13:34:19;28.50;47.00
56103;DHT22;41970;48.774;9.280;2022-07-26T13:36:45;28.50;47.20
56103;DHT22;41970;48.774;9.280;2022-07-26T13:39:11;28.50;47.10
56103;DHT22;41970;48.774;9.280;2022-07-26T13:41:37;28.50;46.70
56103;DHT22;41970;48.774;9.280;2022-07-26T13:44:03;28.50;47.00
56103;DHT22;41970;48.774;9.280;2022-07-26T13:46:30;28.50;46.70
56103;DHT22;41970;48.774;9.280;2022-07-26T13:48:57;28.60;46.80
56103;DHT22;41970;48.774;9.280;2022-07-26T13:51:24;28.70;46.10
56103;DHT22;41970;48.774;9.280;2022-07-26T13:54:11;28.70;46.20
56103;DHT22;41970;48.774;9.280;2022-07-26T13:56:37;28.80;45.70
56103;DHT22;41970;48.774;9.280;2022-07-26T13:59:03;28.90;45.70
56103;DHT22;41970;48.774;9.280;2022-07-26T14:01:30;28.80;44.90
56103;DHT22;41970;48.774;9.280;2022-07-26T14:03:56;28.70;46.30
56103;DHT22;41970;48.774;9.280;2022-07-26T14:06:23;28.60;46.70
56103;DHT22;41970;48.774;9.280;2022-07-26T14:08:51;28.30;46.30
56103;DHT22;41970;48.774;9.280;2022-07-26T14:11:17;28.10;48.00
56103;DHT22;41970;48.774;9.280;2022-07-26T14:13:43;27.90;48.60
56103;DHT22;41970;48.774;9.280;2022-07-26T14:16:09;27.80;47.70
56103;DHT22;41970;48.774;9.280;2022-07-26T14:18:35;27.80;47.00
56103;DHT22;41970;48.774;9.280;2022-07-26T14:21:02;27.90;46.90
56103;DHT22;41970;48.774;9.280;2022-07-26T14:23:28;27.80;46.90
56103;DHT22;41970;48.774;9.280;2022-07-26T14:25:54;27.80;47.10
56103;DHT22;41970;48.774;9.280;2022-07-26T14:28:20;27.80;47.90
56103;DHT22;41970;48.774;9.280;2022-07-26T14:30:47;27.90;47.00
56103;DHT22;41970;48.774;9.280;2022-07-26T14:33:13;28.10;46.70
56103;DHT22;41970;48.774;9.280;2022-07-26T14:35:39;28.00;47.20
56103;DHT22;41970;48.774;9.280;2022-07-26T14:38:06;28.00;46.80
56103;DHT22;41970;48.774;9.280;2022-07-26T14:40:33;28.00;45.60
56103;DHT22;41970;48.774;9.280;2022-07-26T14:43:00;28.10;46.20
56103;DHT22;41970;48.774;9.280;2022-07-26T14:45:27;28.20;45.20
56103;DHT22;41970;48.774;9.280;2022-07-26T14:47:53;28.20;45.90
56103;DHT22;41970;48.774;9.280;2022-07-26T14:50:19;28.40;45.60
56103;DHT22;41970;48.774;9.280;2022-07-26T14:52:48;28.40;46.70
56103;DHT22;41970;48.774;9.280;2022-07-26T14:55:15;28.40;46.60
56103;DHT22;41970;48.774;9.280;2022-07-26T14:57:41;28.40;44.60
56103;DHT22;41970;48.774;9.280;2022-07-26T15:00:11;28.40;44.20
56103;DHT22;41970;48.774;9.280;2022-07-26T15:02:42;28.40;44.80
56103;DHT22;41970;48.774;9.280;2022-07-26T15:05:10;28.20;44.90
56103;DHT22;41970;48.774;9.280;2022-07-26T15:07:36;28.10;45.40
56103;DHT22;41970;48.774;9.280;2022-07-26T15:10:03;28.10;44.50
56103;DHT22;41970;48.774;9.280;2022-07-26T15:12:30;28.10;44.60
56103;DHT22;41970;48.774;9.280;2022-07-26T15:14:56;28.10;45.30
56103;DHT22;41970;48.774;9.280;2022-07-26T15:17:22;28.20;45.30
56103;DHT22;41970;48.774;9.280;2022-07-26T15:19:48;28.30;45.00
56103;DHT22;41970;48.774;9.280;2022-07-26T15:22:14;28.30;44.00
56103;DHT22;41970;48.774;9.280;2022-07-26T15:24:40;28.50;43.80
56103;DHT22;41970;48.774;9.280;2022-07-26T15:27:07;28.40;44.20
56103;DHT22;41970;48.774;9.280;2022-07-26T15:29:33;28.40;43.80
56103;DHT22;41970;48.774;9.280;2022-07-26T15:32:01;28.30;44.40
56103;DHT22;41970;48.774;9.280;2022-07-26T15:34:27;28.30;45.50
56103;DHT22;41970;48.774;9.280;2022-07-26T15:36:53;28.20;44.50
56103;DHT22;41970;48.774;9.280;2022-07-26T15:39:19;28.40;43.60
56103;DHT22;41970;48.774;9.280;2022-07-26T15:41:46;28.50;45.00
56103;DHT22;41970;48.774;9.280;2022-07-26T15:44:15;28.50;45.40
56103;DHT22;41970;48.774;9.280;2022-07-26T15:46:42;28.40;45.90
56103;DHT22;41970;48.774;9.280;2022-07-26T15:49:11;28.20;46.50
56103;DHT22;41970;48.774;9.280;2022-07-26T15:51:40;28.10;47.20
56103;DHT22;41970;48.774;9.280;2022-07-26T15:54:11;28.10;46.20